createdAt,value
2024-01-30T00:00:36.417Z,35.70
2024-01-30T00:03:24.389Z,38.30
2024-01-30T00:05:53.312Z,35.50
2024-01-30T00:08:22.120Z,33.30
2024-01-30T00:10:50.217Z,30.70
2024-01-30T00:13:20.527Z,31.00
2024-01-30T00:15:49.652Z,31.40
2024-01-30T00:18:17.702Z,28.70
2024-01-30T00:20:45.728Z,27.00
2024-01-30T00:23:14.454Z,28.80
2024-01-30T00:25:42.525Z,26.30
2024-01-30T00:28:10.607Z,29.10
2024-01-30T00:30:38.796Z,27.90
2024-01-30T00:33:06.871Z,26.30
2024-01-30T00:35:34.944Z,26.70
2024-01-30T00:38:03.023Z,25.30
2024-01-30T00:40:30.983Z,27.60
2024-01-30T00:42:59.037Z,33.50
2024-01-30T00:45:27.167Z,29.80
2024-01-30T00:47:55.231Z,29.90
2024-01-30T00:50:23.363Z,34.50
2024-01-30T00:52:51.487Z,27.50
2024-01-30T00:55:19.969Z,32.60
2024-01-30T00:57:48.496Z,31.70
2024-01-30T01:00:19.280Z,25.30
2024-01-30T01:02:47.524Z,30.70
2024-01-30T01:05:15.815Z,28.70
2024-01-30T01:07:44.153Z,30.50
2024-01-30T01:10:14.863Z,28.80
2024-01-30T01:12:43.338Z,29.60
2024-01-30T01:15:11.690Z,26.40
2024-01-30T01:17:40.312Z,25.70
2024-01-30T01:20:09.199Z,29.90
2024-01-30T01:22:37.273Z,26.50
2024-01-30T01:25:08.344Z,28.20
2024-01-30T01:27:41.721Z,26.10
2024-01-30T01:30:15.682Z,20.50
2024-01-30T01:32:50.297Z,22.00
2024-01-30T01:35:18.449Z,21.80
2024-01-30T01:37:46.383Z,29.30
2024-01-30T01:40:14.454Z,22.00
2024-01-30T01:42:42.403Z,27.00
2024-01-30T01:45:10.716Z,20.00
2024-01-30T01:47:39.386Z,22.10
2024-01-30T01:50:07.740Z,23.30
2024-01-30T01:52:36.154Z,25.40
2024-01-30T01:55:04.433Z,23.70
2024-01-30T01:57:33.082Z,21.90
2024-01-30T02:00:02.998Z,26.30
2024-01-30T02:05:06.860Z,22.20
2024-01-30T02:07:35.371Z,26.20
2024-01-30T02:10:05.043Z,24.90
2024-01-30T02:12:33.162Z,24.20
2024-01-30T02:15:01.215Z,26.00
2024-01-30T02:17:29.288Z,25.30
2024-01-30T02:19:57.412Z,25.10
2024-01-30T02:22:25.617Z,21.90
2024-01-30T02:24:53.582Z,22.30
2024-01-30T02:27:21.576Z,23.10
2024-01-30T02:29:49.524Z,21.90
2024-01-30T02:32:17.486Z,25.00
2024-01-30T02:34:45.541Z,23.40
2024-01-30T02:37:13.590Z,23.90
2024-01-30T02:39:41.607Z,24.70
2024-01-30T02:42:09.552Z,26.20
2024-01-30T02:44:37.586Z,26.70
2024-01-30T02:47:05.727Z,23.00
2024-01-30T02:49:33.841Z,20.80
2024-01-30T02:52:02.094Z,23.10
2024-01-30T02:54:31.977Z,24.60
2024-01-30T02:57:00.048Z,26.80
2024-01-30T02:59:28.203Z,24.10
2024-01-30T03:01:56.279Z,28.90
2024-01-30T03:04:24.592Z,25.10
2024-01-30T03:06:52.853Z,27.00
2024-01-30T03:09:20.873Z,27.90
2024-01-30T03:11:48.904Z,27.70
2024-01-30T03:14:17.065Z,27.10
2024-01-30T03:16:45.032Z,26.30
2024-01-30T03:19:13.184Z,28.50
2024-01-30T03:21:41.390Z,23.40
2024-01-30T03:24:10.217Z,22.20
2024-01-30T03:26:38.224Z,25.50
2024-01-30T03:29:06.598Z,30.10
2024-01-30T03:31:35.432Z,27.20
2024-01-30T03:34:04.191Z,33.40
2024-01-30T03:36:34.190Z,29.50
2024-01-30T03:39:02.507Z,29.30
2024-01-30T03:41:30.744Z,27.10
2024-01-30T03:43:59.374Z,25.90
2024-01-30T03:46:27.414Z,28.10
2024-01-30T03:48:55.449Z,29.20
2024-01-30T03:51:23.449Z,26.30
2024-01-30T03:53:51.465Z,29.70
2024-01-30T03:56:19.595Z,30.90
2024-01-30T03:58:47.603Z,32.20
2024-01-30T04:01:16.230Z,31.80
2024-01-30T04:03:45.637Z,30.10
2024-01-30T04:06:13.941Z,26.70
2024-01-30T04:08:41.903Z,25.10
2024-01-30T04:11:09.891Z,31.70
2024-01-30T04:13:38.022Z,28.50
2024-01-30T04:16:06.659Z,33.60
2024-01-30T04:18:35.293Z,28.20
2024-01-30T04:21:03.404Z,34.50
2024-01-30T04:23:31.417Z,30.40
2024-01-30T04:25:59.744Z,31.40
2024-01-30T04:28:27.780Z,35.20
2024-01-30T04:30:55.783Z,31.90
2024-01-30T04:33:24.160Z,30.00
2024-01-30T04:35:53.101Z,25.70
2024-01-30T04:38:21.117Z,33.50
2024-01-30T04:40:49.195Z,34.10
2024-01-30T04:43:17.226Z,32.60
2024-01-30T04:45:45.362Z,33.70
2024-01-30T04:55:24.332Z,30.60
2024-01-30T04:57:52.447Z,32.60
2024-01-30T05:00:20.522Z,36.20
2024-01-30T05:02:48.419Z,31.10
2024-01-30T05:05:17.825Z,26.00
2024-01-30T05:07:45.907Z,33.30
2024-01-30T05:10:14.089Z,32.00
2024-01-30T05:12:42.402Z,37.40
2024-01-30T05:15:10.738Z,37.20
2024-01-30T05:17:38.720Z,29.30
2024-01-30T05:20:07.474Z,35.50
2024-01-30T05:22:35.536Z,36.40
2024-01-30T05:25:03.852Z,32.30
2024-01-30T05:27:31.920Z,32.10
2024-01-30T05:30:00.011Z,31.10
2024-01-30T05:32:28.159Z,27.40
2024-01-30T05:34:56.505Z,33.80
2024-01-30T05:37:24.574Z,31.90
2024-01-30T05:39:52.680Z,36.50
2024-01-30T05:42:20.633Z,33.90
2024-01-30T05:44:48.709Z,33.70
2024-01-30T05:47:16.869Z,36.80
2024-01-30T05:49:44.983Z,38.70
2024-01-30T05:52:13.058Z,34.20
2024-01-30T05:54:41.082Z,38.80
2024-01-30T05:57:09.081Z,35.10
2024-01-30T05:59:40.753Z,35.10
2024-01-30T06:02:11.836Z,39.40
2024-01-30T06:04:40.226Z,40.00
2024-01-30T06:07:09.140Z,42.50
2024-01-30T06:09:37.364Z,43.10
2024-01-30T06:12:06.714Z,46.70
2024-01-30T06:14:34.734Z,42.70
2024-01-30T06:17:02.750Z,42.70
2024-01-30T06:19:30.876Z,44.40
2024-01-30T06:21:59.242Z,40.30
2024-01-30T06:24:28.931Z,42.50
2024-01-30T06:26:57.249Z,41.60
2024-01-30T06:29:26.020Z,42.40
2024-01-30T06:31:53.980Z,50.10
2024-01-30T06:34:22.947Z,55.70
2024-01-30T06:36:51.037Z,48.70
2024-01-30T06:39:19.413Z,40.60
2024-01-30T06:41:47.998Z,41.30
2024-01-30T06:44:16.176Z,41.70
2024-01-30T06:46:44.219Z,40.90
2024-01-30T06:49:12.250Z,36.80
2024-01-30T06:51:40.317Z,38.10
2024-01-30T06:54:08.279Z,36.90
2024-01-30T06:56:36.820Z,40.00
2024-01-30T06:59:05.045Z,40.10
2024-01-30T07:01:33.818Z,41.80
2024-01-30T07:04:02.027Z,40.20
2024-01-30T07:06:30.275Z,32.60
2024-01-30T07:08:58.381Z,30.20
2024-01-30T07:11:26.552Z,34.90
2024-01-30T07:13:55.071Z,31.60
2024-01-30T07:16:24.507Z,33.70
2024-01-30T07:18:52.805Z,35.60
2024-01-30T07:21:22.942Z,37.30
2024-01-30T07:23:51.022Z,32.70
2024-01-30T07:26:18.969Z,28.70
2024-01-30T07:28:47.145Z,30.00
2024-01-30T07:31:15.208Z,33.20
2024-01-30T07:33:43.225Z,27.60
2024-01-30T07:36:11.786Z,39.00
2024-01-30T07:38:39.861Z,35.90
2024-01-30T07:41:08.229Z,44.80
2024-01-30T07:43:36.980Z,39.20
2024-01-30T07:46:05.571Z,44.20
2024-01-30T07:48:35.385Z,38.50
2024-01-30T07:51:05.194Z,34.10
2024-01-30T07:53:33.299Z,37.20
2024-01-30T07:56:01.596Z,36.70
2024-01-30T07:58:29.690Z,36.50
2024-01-30T08:00:59.993Z,39.50
2024-01-30T08:03:28.398Z,30.10
2024-01-30T08:05:57.203Z,36.00
2024-01-30T08:08:25.326Z,32.70
2024-01-30T08:10:53.482Z,28.70
2024-01-30T08:13:21.563Z,29.20
2024-01-30T08:15:49.539Z,30.70
2024-01-30T08:18:17.704Z,29.50
2024-01-30T08:20:45.776Z,30.20
2024-01-30T08:23:13.776Z,27.10
2024-01-30T08:25:41.829Z,32.60
2024-01-30T08:28:09.904Z,29.30
2024-01-30T08:30:40.188Z,33.70
2024-01-30T08:33:09.101Z,28.00
2024-01-30T08:35:37.419Z,30.40
2024-01-30T08:38:05.508Z,24.20
2024-01-30T08:40:33.604Z,25.20
2024-01-30T08:43:02.177Z,20.80
2024-01-30T08:45:30.222Z,19.00
2024-01-30T08:47:58.436Z,15.50
2024-01-30T08:50:26.863Z,18.20
2024-01-30T08:52:54.935Z,18.20
2024-01-30T08:55:23.039Z,14.40
2024-01-30T08:57:51.237Z,15.20
2024-01-30T09:00:19.272Z,25.20
2024-01-30T09:02:47.316Z,27.60
2024-01-30T09:05:18.326Z,39.50
2024-01-30T09:07:47.354Z,48.50
2024-01-30T09:10:17.730Z,41.00
2024-01-30T09:12:47.996Z,33.30
2024-01-30T09:15:16.125Z,26.90
2024-01-30T09:17:44.268Z,23.80
2024-01-30T09:20:12.800Z,21.30
2024-01-30T09:22:40.887Z,15.80
2024-01-30T09:25:09.133Z,17.90
2024-01-30T09:27:37.287Z,16.80
2024-01-30T09:30:05.973Z,21.90
2024-01-30T09:32:34.165Z,18.70
2024-01-30T09:35:23.228Z,13.70
2024-01-30T09:37:52.708Z,16.10
2024-01-30T09:40:21.682Z,16.30
2024-01-30T09:42:51.880Z,16.80
2024-01-30T09:45:20.817Z,14.90
2024-01-30T09:47:49.196Z,14.10
2024-01-30T09:50:17.997Z,13.50
2024-01-30T09:52:47.321Z,12.70
2024-01-30T09:55:15.530Z,17.50
2024-01-30T09:57:44.089Z,12.90
2024-01-30T10:00:13.034Z,14.10
2024-01-30T10:02:41.773Z,17.00
2024-01-30T10:05:10.739Z,16.00
2024-01-30T10:07:39.321Z,17.20
2024-01-30T10:10:08.145Z,17.50
2024-01-30T10:12:36.463Z,15.80
2024-01-30T10:15:09.286Z,16.70
2024-01-30T10:17:39.024Z,13.90
2024-01-30T10:20:09.278Z,19.80
2024-01-30T10:22:37.624Z,18.80
2024-01-30T10:25:06.922Z,17.40
2024-01-30T10:27:35.273Z,16.90
2024-01-30T10:30:05.423Z,17.90
2024-01-30T10:32:34.201Z,17.10
2024-01-30T10:35:02.554Z,17.00
2024-01-30T10:37:33.304Z,16.60
2024-01-30T10:40:05.800Z,14.70
2024-01-30T10:42:34.096Z,16.90
2024-01-30T10:45:09.862Z,19.30
2024-01-30T10:50:10.119Z,14.70
2024-01-30T10:52:39.187Z,17.30
2024-01-30T10:55:08.524Z,12.70
2024-01-30T10:57:37.805Z,15.40
2024-01-30T11:00:14.173Z,12.90
2024-01-30T11:02:47.232Z,10.40
2024-01-30T11:05:18.628Z,9.10
2024-01-30T11:07:47.717Z,16.10
2024-01-30T11:10:16.835Z,10.70
2024-01-30T11:12:47.800Z,11.60
2024-01-30T11:15:18.332Z,10.70
2024-01-30T11:17:46.472Z,14.60
2024-01-30T11:20:22.101Z,11.30
2024-01-30T11:22:54.607Z,13.90
2024-01-30T11:25:24.316Z,12.60
2024-01-30T11:27:56.790Z,12.20
2024-01-30T11:30:27.180Z,12.70
2024-01-30T11:33:02.456Z,13.90
2024-01-30T11:35:37.269Z,20.20
2024-01-30T11:38:07.002Z,13.10
2024-01-30T11:40:36.176Z,13.50
2024-01-30T11:43:06.451Z,14.80
2024-01-30T11:45:36.065Z,13.60
2024-01-30T11:48:06.064Z,16.80
2024-01-30T11:50:35.832Z,20.40
2024-01-30T11:53:05.605Z,17.30
2024-01-30T11:55:35.855Z,20.00
2024-01-30T11:58:05.407Z,17.90
2024-01-30T12:00:34.934Z,24.90
2024-01-30T12:03:05.019Z,22.40
2024-01-30T12:05:33.838Z,17.80
2024-01-30T12:08:03.025Z,22.40
2024-01-30T12:10:32.123Z,18.80
2024-01-30T12:13:02.886Z,19.40
2024-01-30T12:15:31.885Z,20.60
2024-01-30T12:18:07.772Z,24.20
2024-01-30T12:20:36.356Z,20.10
2024-01-30T12:23:05.060Z,16.80
2024-01-30T12:25:33.874Z,19.20
2024-01-30T12:28:02.196Z,22.80
2024-01-30T12:30:31.015Z,19.60
2024-01-30T12:32:59.476Z,29.70
2024-01-30T12:35:30.972Z,23.60
2024-01-30T12:38:01.411Z,22.90
2024-01-30T12:40:30.091Z,23.10
2024-01-30T12:42:58.714Z,23.90
2024-01-30T12:45:26.953Z,24.20
2024-01-30T12:47:55.687Z,25.50
2024-01-30T12:50:24.053Z,21.20
2024-01-30T12:52:52.271Z,22.30
2024-01-30T12:55:20.344Z,22.90
2024-01-30T12:57:49.180Z,22.10
2024-01-30T13:00:18.787Z,26.80
2024-01-30T13:02:48.396Z,27.80
2024-01-30T13:05:16.832Z,24.00
2024-01-30T13:07:45.291Z,21.90
2024-01-30T13:10:14.258Z,19.40
2024-01-30T13:12:43.195Z,24.90
2024-01-30T13:15:12.467Z,25.40
2024-01-30T13:17:40.775Z,25.40
2024-01-30T13:20:11.914Z,21.80
2024-01-30T13:22:41.165Z,21.00
2024-01-30T13:25:09.896Z,21.30
2024-01-30T13:27:39.630Z,23.00
2024-01-30T13:30:12.110Z,22.60
2024-01-30T13:32:42.233Z,24.10
2024-01-30T13:35:10.615Z,26.30
2024-01-30T13:37:38.949Z,24.90
2024-01-30T13:40:13.514Z,25.00
2024-01-30T13:42:42.459Z,22.20
2024-01-30T13:45:11.621Z,20.20
2024-01-30T13:47:40.405Z,25.70
2024-01-30T13:50:09.785Z,22.40
2024-01-30T13:52:43.950Z,21.80
2024-01-30T13:55:14.161Z,20.40
2024-01-30T13:57:42.882Z,22.10
2024-01-30T14:00:15.097Z,26.80
2024-01-30T14:02:43.519Z,22.90
2024-01-30T14:05:12.309Z,28.80
2024-01-30T14:07:41.757Z,22.90
2024-01-30T14:10:14.262Z,30.90
2024-01-30T14:12:49.070Z,25.70
2024-01-30T14:15:27.955Z,28.90
2024-01-30T14:17:58.178Z,26.40
2024-01-30T14:20:27.692Z,23.70
2024-01-30T14:22:57.439Z,36.20
2024-01-30T14:25:26.314Z,42.10
2024-01-30T14:27:54.852Z,50.80
2024-01-30T14:30:23.006Z,43.40
2024-01-30T14:32:51.612Z,38.90
2024-01-30T14:35:20.861Z,29.40
2024-01-30T14:37:49.474Z,25.20
2024-01-30T14:40:19.305Z,22.90
2024-01-30T14:42:47.679Z,21.50
2024-01-30T14:45:15.919Z,32.80
2024-01-30T14:47:44.527Z,19.60
2024-01-30T14:50:12.730Z,28.40
2024-01-30T14:52:41.784Z,26.60
2024-01-30T14:55:10.598Z,25.80
2024-01-30T14:57:39.502Z,22.70
2024-01-30T15:00:08.419Z,25.80
2024-01-30T15:02:36.779Z,25.20
2024-01-30T15:05:06.980Z,25.10
2024-01-30T15:07:39.940Z,27.80
2024-01-30T15:10:10.895Z,25.40
2024-01-30T15:12:39.654Z,27.00
2024-01-30T15:15:09.454Z,26.50
2024-01-30T15:17:38.414Z,31.30
2024-01-30T15:20:08.409Z,23.80
2024-01-30T15:22:36.756Z,29.00
2024-01-30T15:25:06.717Z,33.40
2024-01-30T15:27:35.085Z,25.20
2024-01-30T15:30:03.962Z,26.40
2024-01-30T15:32:32.059Z,27.10
2024-01-30T15:35:02.343Z,33.70
2024-01-30T15:37:30.877Z,33.50
2024-01-30T15:39:59.003Z,31.50
2024-01-30T15:42:27.215Z,32.70
2024-01-30T15:44:55.316Z,29.10
2024-01-30T15:47:23.256Z,39.10
2024-01-30T15:49:51.553Z,42.70
2024-01-30T15:52:19.738Z,38.30
2024-01-30T15:54:48.612Z,35.40
2024-01-30T15:57:16.774Z,39.20
2024-01-30T15:59:44.906Z,40.00
2024-01-30T16:02:13.134Z,44.70
2024-01-30T16:04:41.644Z,55.70
2024-01-30T16:07:09.762Z,74.60
2024-01-30T16:09:37.874Z,96.00
2024-01-30T16:12:06.196Z,98.90
2024-01-30T16:14:35.036Z,60.80
2024-01-30T16:17:03.239Z,66.80
2024-01-30T16:19:31.510Z,69.00
2024-01-30T16:22:00.264Z,59.90
2024-01-30T16:24:28.751Z,60.10
2024-01-30T16:26:58.042Z,45.30
2024-01-30T16:29:26.148Z,52.90
2024-01-30T16:31:54.139Z,37.30
2024-01-30T16:34:22.426Z,47.20
2024-01-30T16:36:50.788Z,39.70
2024-01-30T16:39:18.971Z,46.40
2024-01-30T16:41:47.101Z,38.70
2024-01-30T16:44:15.585Z,31.70
2024-01-30T16:46:43.641Z,45.30
2024-01-30T16:49:12.174Z,37.60
2024-01-30T16:51:40.259Z,45.80
2024-01-30T16:54:08.275Z,41.90
2024-01-30T16:56:36.319Z,31.30
2024-01-30T16:59:04.534Z,38.60
2024-01-30T17:01:32.764Z,48.60
2024-01-30T17:04:00.986Z,34.20
2024-01-30T17:06:29.132Z,35.20
2024-01-30T17:09:08.457Z,38.90
2024-01-30T17:11:36.570Z,41.90
2024-01-30T17:14:04.666Z,47.50
2024-01-30T17:16:33.003Z,73.00
2024-01-30T17:19:01.186Z,74.10
2024-01-30T17:21:29.556Z,91.50
2024-01-30T17:23:57.614Z,97.90
2024-01-30T17:26:26.166Z,99.20
2024-01-30T17:28:54.385Z,113.00
2024-01-30T17:31:22.425Z,102.70
2024-01-30T17:33:52.115Z,101.50
2024-01-30T17:36:20.220Z,77.90
2024-01-30T17:38:48.364Z,74.30
2024-01-30T17:41:16.474Z,73.00
2024-01-30T17:43:45.204Z,62.30
2024-01-30T17:46:13.502Z,61.30
2024-01-30T17:48:42.150Z,48.20
2024-01-30T17:51:10.846Z,49.00
2024-01-30T17:53:38.976Z,45.80
2024-01-30T17:56:07.391Z,41.20
2024-01-30T17:58:35.694Z,41.00
2024-01-30T18:01:04.568Z,41.40
2024-01-30T18:03:32.706Z,42.00
2024-01-30T18:06:03.683Z,40.20
2024-01-30T18:08:33.979Z,46.30
2024-01-30T18:11:02.296Z,49.40
2024-01-30T18:13:30.416Z,55.90
2024-01-30T18:15:58.548Z,65.00
2024-01-30T18:18:31.425Z,67.00
2024-01-30T18:21:00.370Z,73.80
2024-01-30T18:23:28.452Z,57.10
2024-01-30T18:26:01.312Z,47.10
2024-01-30T18:28:30.516Z,48.30
2024-01-30T18:30:59.165Z,42.70
2024-01-30T18:33:28.736Z,41.30
2024-01-30T18:35:57.078Z,43.40
2024-01-30T18:38:25.436Z,38.10
2024-01-30T18:40:53.834Z,41.90
2024-01-30T18:43:22.028Z,32.20
2024-01-30T18:45:55.951Z,40.50
2024-01-30T18:48:24.033Z,41.00
2024-01-30T18:50:52.776Z,44.70
2024-01-30T18:53:20.816Z,41.10
2024-01-30T18:55:49.197Z,36.50
2024-01-30T18:58:17.362Z,41.50
2024-01-30T19:00:48.454Z,54.00
2024-01-30T19:03:19.081Z,55.80
2024-01-30T19:05:48.342Z,58.00
2024-01-30T19:08:17.538Z,42.20
2024-01-30T19:10:50.692Z,45.70
2024-01-30T19:13:19.956Z,44.90
2024-01-30T19:15:48.517Z,36.50
2024-01-30T19:18:16.897Z,36.30
2024-01-30T19:20:45.201Z,32.20
2024-01-30T19:23:13.404Z,30.30
2024-01-30T19:25:43.458Z,25.30
2024-01-30T19:28:13.607Z,28.30
2024-01-30T19:30:41.879Z,25.90
2024-01-30T19:33:10.365Z,33.00
2024-01-30T19:35:38.471Z,28.10
2024-01-30T19:38:06.587Z,26.30
2024-01-30T19:40:34.717Z,26.10
2024-01-30T19:43:02.813Z,29.50
2024-01-30T19:45:30.904Z,25.10
2024-01-30T19:47:58.969Z,22.10
2024-01-30T19:50:27.229Z,26.50
2024-01-30T19:52:55.691Z,27.60
2024-01-30T19:55:26.858Z,27.20
2024-01-30T19:57:55.241Z,19.80
2024-01-30T20:00:24.129Z,27.10
2024-01-30T20:02:52.525Z,21.20
2024-01-30T20:05:21.008Z,25.10
2024-01-30T20:07:49.320Z,22.80
2024-01-30T20:10:17.823Z,22.00
2024-01-30T20:12:45.944Z,21.70
2024-01-30T20:15:16.119Z,19.50
2024-01-30T20:17:45.441Z,20.60
2024-01-30T20:20:18.098Z,30.30
2024-01-30T20:22:50.186Z,23.60
2024-01-30T20:25:19.986Z,23.60
2024-01-30T20:27:48.947Z,25.80
2024-01-30T20:30:18.316Z,21.20
2024-01-30T20:32:46.981Z,20.70
2024-01-30T20:35:15.627Z,23.00
2024-01-30T20:37:44.114Z,21.30
2024-01-30T20:40:12.606Z,24.00
2024-01-30T20:42:40.648Z,20.30
2024-01-30T20:45:09.309Z,20.20
2024-01-30T20:47:37.499Z,17.90
2024-01-30T20:50:07.024Z,19.00
2024-01-30T20:52:36.295Z,19.50
2024-01-30T20:55:05.478Z,16.80
2024-01-30T20:57:33.797Z,20.30
2024-01-30T21:00:01.897Z,19.40
2024-01-30T21:02:30.068Z,19.90
2024-01-30T21:04:58.125Z,18.30
2024-01-30T21:07:26.422Z,21.50
2024-01-30T21:09:55.185Z,18.60
2024-01-30T21:12:23.425Z,17.60
2024-01-30T21:14:52.452Z,19.90
2024-01-30T21:17:23.534Z,22.80
2024-01-30T21:19:51.656Z,26.30
2024-01-30T21:22:19.814Z,21.30
2024-01-30T21:24:47.797Z,24.00
2024-01-30T21:27:15.771Z,23.60
2024-01-30T21:29:44.840Z,23.50
2024-01-30T21:32:14.011Z,23.90
2024-01-30T21:34:42.603Z,22.40
2024-01-30T21:37:10.725Z,22.60
2024-01-30T21:39:39.059Z,20.70
2024-01-30T21:42:07.150Z,22.30
2024-01-30T21:44:35.175Z,22.00
2024-01-30T21:47:04.588Z,30.90
2024-01-30T21:49:32.736Z,25.00
2024-01-30T21:52:06.427Z,25.10
2024-01-30T21:54:35.427Z,22.20
2024-01-30T21:57:03.918Z,23.80
2024-01-30T21:59:32.781Z,16.10
2024-01-30T22:02:01.119Z,19.40
2024-01-30T22:04:29.314Z,19.90
2024-01-30T22:06:57.912Z,19.80
2024-01-30T22:09:26.232Z,21.10
2024-01-30T22:11:54.261Z,19.20
2024-01-30T22:14:22.240Z,21.20
2024-01-30T22:16:50.367Z,16.80
2024-01-30T22:19:18.774Z,16.60
2024-01-30T22:21:46.818Z,19.30
2024-01-30T22:24:15.162Z,19.60
2024-01-30T22:26:44.155Z,18.00
2024-01-30T22:29:12.210Z,17.80
2024-01-30T22:31:40.336Z,14.50
2024-01-30T22:34:08.557Z,13.20
2024-01-30T22:36:36.530Z,13.40
2024-01-30T22:39:09.954Z,13.20
2024-01-30T22:41:38.170Z,14.80
2024-01-30T22:44:06.621Z,13.20
2024-01-30T22:46:34.718Z,14.80
2024-01-30T22:49:02.940Z,9.20
2024-01-30T22:51:31.071Z,15.10
2024-01-30T22:53:59.122Z,11.20
2024-01-30T22:56:27.280Z,11.80
2024-01-30T22:58:55.558Z,9.30
2024-01-30T23:01:25.694Z,9.80
2024-01-30T23:03:55.940Z,9.40
2024-01-30T23:06:28.360Z,10.90
2024-01-30T23:09:11.630Z,12.80
2024-01-30T23:11:39.801Z,14.30
2024-01-30T23:14:10.691Z,14.10
2024-01-30T23:16:40.296Z,13.10
2024-01-30T23:19:08.933Z,11.70
2024-01-30T23:21:39.670Z,13.00
2024-01-30T23:24:07.903Z,9.90
2024-01-30T23:26:42.733Z,11.00
2024-01-30T23:29:10.693Z,12.40
2024-01-30T23:31:44.367Z,13.40
2024-01-30T23:34:13.308Z,9.50
2024-01-30T23:36:45.105Z,9.20
2024-01-30T23:39:14.296Z,12.00
2024-01-30T23:41:42.489Z,7.50
2024-01-30T23:44:10.416Z,13.20
2024-01-30T23:46:38.456Z,9.20
2024-01-30T23:49:06.658Z,9.60
2024-01-30T23:51:34.839Z,13.40
2024-01-30T23:54:02.814Z,11.10
2024-01-30T23:56:30.917Z,9.80
2024-01-30T23:58:59.001Z,8.20
